createdAt,value
2018-09-12T00:01:45.508Z,42.48
2018-09-12T00:03:25.533Z,42.25
2018-09-12T00:05:22.879Z,42.74
2018-09-12T00:07:01.545Z,42.91
2018-09-12T00:08:41.097Z,42.40
2018-09-12T00:10:22.286Z,42.92
2018-09-12T00:11:58.590Z,42.38
2018-09-12T00:13:35.916Z,42.85
2018-09-12T00:15:11.492Z,43.00
2018-09-12T00:16:57.553Z,43.16
2018-09-12T00:18:39.535Z,42.46
2018-09-12T00:20:17.928Z,42.49
2018-09-12T00:21:57.284Z,42.54
2018-09-12T00:23:42.977Z,43.27
2018-09-12T00:25:21.176Z,43.13
2018-09-12T00:26:59.771Z,42.98
2018-09-12T00:28:35.955Z,42.55
2018-09-12T00:30:12.815Z,42.69
2018-09-12T00:31:53.169Z,42.70
2018-09-12T00:33:33.826Z,43.00
2018-09-12T00:35:09.297Z,42.96
2018-09-12T00:36:46.689Z,43.12
2018-09-12T00:38:22.270Z,43.40
2018-09-12T00:40:02.015Z,43.44
2018-09-12T00:41:39.802Z,43.29
2018-09-12T00:43:17.691Z,42.89
2018-09-12T00:44:55.212Z,43.50
2018-09-12T00:46:34.905Z,42.85
2018-09-12T00:48:11.137Z,42.79
2018-09-12T00:49:47.568Z,43.47
2018-09-12T00:51:23.665Z,43.30
2018-09-12T00:53:09.496Z,42.99
2018-09-12T00:54:45.210Z,42.91
2018-09-12T00:56:21.633Z,43.56
2018-09-12T00:57:59.967Z,43.20
2018-09-12T00:59:37.745Z,43.56
2018-09-12T01:01:24.428Z,43.09
2018-09-12T01:03:02.451Z,43.31
2018-09-12T01:04:37.873Z,43.65
2018-09-12T01:06:15.088Z,43.58
2018-09-12T01:07:53.956Z,43.07
2018-09-12T01:09:32.415Z,43.64
2018-09-12T01:11:08.750Z,43.68
2018-09-12T01:12:45.624Z,43.51
2018-09-12T01:14:23.874Z,43.25
2018-09-12T01:16:01.638Z,43.71
2018-09-12T01:17:37.214Z,43.50
2018-09-12T01:19:19.241Z,43.84
2018-09-12T01:20:59.938Z,43.98
2018-09-12T01:22:41.189Z,43.90
2018-09-12T01:24:16.509Z,43.87
2018-09-12T01:25:52.373Z,43.62
2018-09-12T01:27:29.708Z,43.33
2018-09-12T01:29:06.297Z,43.33
2018-09-12T01:30:43.432Z,43.65
2018-09-12T01:32:21.801Z,43.35
2018-09-12T01:33:59.533Z,43.50
2018-09-12T01:35:36.544Z,44.05
2018-09-12T01:37:14.301Z,43.52
2018-09-12T01:38:50.729Z,43.99
2018-09-12T01:40:26.971Z,43.54
2018-09-12T01:42:03.119Z,44.03
2018-09-12T01:43:38.937Z,43.47
2018-09-12T01:45:20.343Z,43.29
2018-09-12T01:46:56.293Z,43.70
2018-09-12T01:48:31.863Z,43.49
2018-09-12T01:50:07.404Z,43.49
2018-09-12T01:51:46.375Z,44.11
2018-09-12T01:54:50.581Z,43.70
2018-09-12T01:56:28.766Z,44.24
2018-09-12T01:58:05.610Z,44.20
2018-09-12T01:59:41.554Z,44.15
2018-09-12T02:01:17.856Z,44.09
2018-09-12T02:02:53.687Z,44.07
2018-09-12T02:04:29.402Z,44.13
2018-09-12T02:06:07.454Z,43.73
2018-09-12T02:07:43.331Z,43.83
2018-09-12T02:09:22.217Z,43.85
2018-09-12T02:11:08.201Z,44.35
2018-09-12T02:12:46.763Z,44.44
2018-09-12T02:14:22.139Z,43.86
2018-09-12T02:15:58.380Z,43.81
2018-09-12T02:17:34.465Z,43.64
2018-09-12T02:19:14.524Z,44.40
2018-09-12T02:20:50.749Z,43.86
2018-09-12T02:22:29.640Z,44.44
2018-09-12T02:24:13.611Z,44.50
2018-09-12T02:25:53.068Z,44.02
2018-09-12T02:27:32.852Z,44.60
2018-09-12T02:29:15.570Z,44.52
2018-09-12T02:30:53.579Z,44.53
2018-09-12T02:32:30.726Z,44.48
2018-09-12T02:34:09.711Z,44.54
2018-09-12T02:35:52.670Z,44.53
2018-09-12T02:37:33.565Z,44.58
2018-09-12T02:39:21.484Z,43.94
2018-09-12T02:41:02.417Z,44.43
2018-09-12T02:42:41.908Z,44.58
2018-09-12T02:44:17.653Z,44.61
2018-09-12T02:45:59.529Z,44.03
2018-09-12T02:47:40.230Z,44.10
2018-09-12T02:49:16.045Z,44.59
2018-09-12T02:50:53.611Z,44.63
2018-09-12T02:52:35.504Z,44.66
2018-09-12T02:54:21.937Z,44.72
2018-09-12T02:56:00.142Z,44.19
2018-09-12T02:57:37.194Z,44.66
2018-09-12T03:01:15.949Z,44.29
2018-09-12T03:02:52.699Z,44.29
2018-09-12T03:04:36.988Z,44.86
2018-09-12T03:06:13.810Z,44.32
2018-09-12T03:07:49.918Z,44.84
2018-09-12T03:09:32.895Z,44.83
2018-09-12T03:11:10.863Z,44.80
2018-09-12T03:12:46.538Z,44.92
2018-09-12T03:14:21.991Z,44.49
2018-09-12T03:15:58.724Z,44.50
2018-09-12T03:17:36.376Z,44.42
2018-09-12T03:19:13.483Z,44.96
2018-09-12T03:20:55.554Z,44.92
2018-09-12T03:22:33.865Z,44.64
2018-09-12T03:24:10.979Z,44.66
2018-09-12T03:25:46.849Z,44.83
2018-09-12T03:27:26.688Z,44.54
2018-09-12T03:29:02.198Z,44.75
2018-09-12T03:30:41.984Z,45.29
2018-09-12T03:32:19.203Z,45.35
2018-09-12T03:33:55.269Z,44.84
2018-09-12T03:35:32.358Z,44.87
2018-09-12T03:37:09.224Z,44.79
2018-09-12T03:38:45.481Z,45.34
2018-09-12T03:40:21.370Z,45.22
2018-09-12T03:43:30.945Z,44.98
2018-09-12T03:45:12.359Z,45.01
2018-09-12T03:46:49.313Z,45.45
2018-09-12T03:48:26.043Z,45.47
2018-09-12T03:50:02.303Z,44.98
2018-09-12T03:51:40.263Z,45.29
2018-09-12T03:53:23.330Z,45.31
2018-09-12T03:55:04.146Z,45.58
2018-09-12T03:56:41.857Z,45.25
2018-09-12T03:58:18.005Z,45.60
2018-09-12T03:59:53.690Z,45.38
2018-09-12T04:01:29.590Z,45.39
2018-09-12T04:03:05.065Z,46.06
2018-09-12T04:04:41.542Z,45.97
2018-09-12T04:06:17.423Z,45.72
2018-09-12T04:07:52.960Z,45.59
2018-09-12T04:09:29.360Z,46.28
2018-09-12T04:11:05.399Z,45.69
2018-09-12T04:12:41.336Z,46.29
2018-09-12T04:14:17.470Z,45.90
2018-09-12T04:15:53.359Z,45.83
2018-09-12T04:17:34.840Z,46.27
2018-09-12T04:19:10.272Z,46.40
2018-09-12T04:20:45.646Z,46.44
2018-09-12T04:22:21.626Z,45.88
2018-09-12T04:23:57.412Z,46.35
2018-09-12T04:25:32.763Z,46.32
2018-09-12T04:27:08.199Z,46.02
2018-09-12T04:28:43.692Z,46.51
2018-09-12T04:30:19.625Z,46.55
2018-09-12T04:31:55.103Z,46.73
2018-09-12T04:33:30.397Z,46.12
2018-09-12T04:35:06.051Z,46.66
2018-09-12T04:36:41.842Z,46.27
2018-09-12T04:38:17.743Z,46.32
2018-09-12T04:39:53.373Z,46.97
2018-09-12T04:41:33.085Z,46.87
2018-09-12T04:43:16.263Z,46.46
2018-09-12T04:44:51.686Z,46.96
2018-09-12T04:46:28.710Z,46.49
2018-09-12T04:48:04.370Z,46.56
2018-09-12T04:49:39.750Z,46.87
2018-09-12T04:51:17.837Z,46.89
2018-09-12T04:52:53.796Z,46.97
2018-09-12T04:54:29.161Z,46.65
2018-09-12T04:56:07.369Z,47.02
2018-09-12T04:57:42.861Z,47.04
2018-09-12T04:59:22.026Z,47.07
2018-09-12T05:00:57.678Z,47.03
2018-09-12T05:02:34.724Z,47.12
2018-09-12T05:04:10.186Z,46.84
2018-09-12T05:05:46.591Z,46.86
2018-09-12T05:07:22.650Z,47.06
2018-09-12T05:08:58.593Z,47.32
2018-09-12T05:10:34.986Z,47.33
2018-09-12T05:12:13.300Z,47.38
2018-09-12T05:13:49.180Z,47.51
2018-09-12T05:15:27.559Z,47.41
2018-09-12T05:17:03.601Z,47.22
2018-09-12T05:18:41.261Z,47.47
2018-09-12T05:20:17.383Z,47.14
2018-09-12T05:21:58.566Z,47.62
2018-09-12T05:23:33.928Z,47.60
2018-09-12T05:25:10.747Z,47.70
2018-09-12T05:26:47.992Z,47.47
2018-09-12T05:28:30.372Z,47.32
2018-09-12T05:30:10.957Z,47.91
2018-09-12T05:31:47.709Z,47.94
2018-09-12T05:33:26.194Z,48.07
2018-09-12T05:35:04.960Z,47.63
2018-09-12T05:36:45.071Z,47.62
2018-09-12T05:38:24.326Z,47.68
2018-09-12T05:40:04.543Z,47.77
2018-09-12T05:41:43.995Z,48.19
2018-09-12T05:43:20.879Z,48.25
2018-09-12T05:44:56.152Z,48.46
2018-09-12T05:46:32.519Z,48.50
2018-09-12T05:48:08.465Z,48.56
2018-09-12T05:49:45.253Z,48.03
2018-09-12T05:51:21.331Z,48.16
2018-09-12T05:52:56.674Z,48.85
2018-09-12T05:54:33.360Z,48.80
2018-09-12T05:56:08.766Z,48.68
2018-09-12T05:57:46.190Z,48.32
2018-09-12T05:59:22.686Z,48.78
2018-09-12T06:00:59.756Z,48.51
2018-09-12T06:02:36.843Z,48.65
2018-09-12T06:04:12.800Z,48.70
2018-09-12T06:05:49.672Z,49.42
2018-09-12T06:07:34.213Z,49.05
2018-09-12T06:09:11.838Z,49.16
2018-09-12T06:10:49.487Z,49.15
2018-09-12T06:12:24.919Z,49.51
2018-09-12T06:14:00.794Z,48.88
2018-09-12T06:15:39.282Z,49.61
2018-09-12T06:17:17.419Z,48.87
2018-09-12T06:19:04.723Z,49.58
2018-09-12T06:20:47.175Z,49.17
2018-09-12T06:22:30.021Z,49.78
2018-09-12T06:24:15.448Z,49.11
2018-09-12T06:25:52.905Z,49.93
2018-09-12T06:27:29.983Z,49.72
2018-09-12T06:29:06.664Z,49.88
2018-09-12T06:30:43.132Z,49.44
2018-09-12T06:32:22.172Z,49.49
2018-09-12T06:33:59.375Z,49.86
2018-09-12T06:35:36.251Z,49.22
2018-09-12T06:37:20.936Z,49.22
2018-09-12T06:38:58.654Z,49.91
2018-09-12T06:40:36.339Z,49.25
2018-09-12T06:42:23.126Z,49.95
2018-09-12T06:43:58.736Z,49.85
2018-09-12T06:45:34.853Z,50.03
2018-09-12T06:47:10.543Z,49.44
2018-09-12T06:48:46.585Z,49.16
2018-09-12T06:50:23.731Z,49.97
2018-09-12T06:52:00.522Z,49.37
2018-09-12T06:53:37.516Z,49.71
2018-09-12T06:55:27.713Z,50.11
2018-09-12T06:57:06.889Z,49.87
2018-09-12T06:58:43.753Z,49.49
2018-09-12T07:00:21.072Z,50.06
2018-09-12T07:02:00.546Z,50.14
2018-09-12T07:03:40.909Z,49.85
2018-09-12T07:05:20.256Z,49.38
2018-09-12T07:06:57.301Z,49.89
2018-09-12T07:08:35.119Z,49.76
2018-09-12T07:10:13.187Z,49.37
2018-09-12T07:11:53.602Z,49.32
2018-09-12T07:13:34.151Z,49.55
2018-09-12T07:15:31.386Z,49.62
2018-09-12T07:17:15.103Z,50.03
2018-09-12T07:19:03.584Z,49.44
2018-09-12T07:20:46.039Z,50.05
2018-09-12T07:22:21.793Z,49.38
2018-09-12T07:23:57.904Z,50.15
2018-09-12T07:25:38.295Z,49.77
2018-09-12T07:27:13.775Z,50.20
2018-09-12T07:28:53.849Z,50.15
2018-09-12T07:30:31.863Z,50.11
2018-09-12T07:32:11.060Z,50.15
2018-09-12T07:33:46.342Z,49.65
2018-09-12T07:35:22.896Z,49.51
2018-09-12T07:36:58.860Z,49.48
2018-09-12T07:38:34.825Z,50.25
2018-09-12T07:40:11.243Z,50.00
2018-09-12T07:41:47.838Z,49.81
2018-09-12T07:43:23.676Z,49.89
2018-09-12T07:45:00.961Z,49.66
2018-09-12T07:46:40.288Z,49.93
2018-09-12T07:48:17.873Z,50.31
2018-09-12T07:49:54.478Z,50.05
2018-09-12T07:51:30.960Z,49.52
2018-09-12T07:53:06.409Z,50.04
2018-09-12T07:54:44.287Z,50.04
2018-09-12T07:56:20.727Z,49.53
2018-09-12T07:57:56.152Z,49.93
2018-09-12T07:59:31.622Z,49.61
2018-09-12T08:01:07.695Z,49.48
2018-09-12T08:02:43.176Z,50.04
2018-09-12T08:04:18.520Z,49.42
2018-09-12T08:05:55.134Z,49.69
2018-09-12T08:07:32.630Z,50.22
2018-09-12T08:09:11.883Z,49.66
2018-09-12T08:10:47.298Z,49.43
2018-09-12T08:12:22.937Z,50.15
2018-09-12T08:13:59.553Z,49.84
2018-09-12T08:15:35.950Z,49.92
2018-09-12T08:17:11.357Z,50.02
2018-09-12T08:18:53.922Z,50.00
2018-09-12T08:20:36.084Z,49.85
2018-09-12T08:22:23.726Z,50.19
2018-09-12T08:24:08.322Z,49.49
2018-09-12T08:25:52.580Z,49.89
2018-09-12T08:27:32.142Z,50.14
2018-09-12T08:29:09.231Z,50.22
2018-09-12T08:30:48.807Z,50.07
2018-09-12T08:32:27.952Z,49.41
2018-09-12T08:34:03.809Z,49.45
2018-09-12T08:35:42.579Z,49.50
2018-09-12T08:37:19.677Z,49.80
2018-09-12T08:38:57.889Z,49.80
2018-09-12T08:40:34.117Z,49.86
2018-09-12T08:42:09.837Z,50.02
2018-09-12T08:45:34.452Z,50.05
2018-09-12T08:47:13.188Z,49.95
2018-09-12T08:48:50.768Z,50.01
2018-09-12T08:50:27.646Z,49.33
2018-09-12T08:52:08.724Z,49.37
2018-09-12T08:53:49.808Z,50.05
2018-09-12T08:55:27.468Z,49.30
2018-09-12T08:57:05.477Z,49.85
2018-09-12T08:58:44.509Z,49.83
2018-09-12T09:00:20.775Z,49.49
2018-09-12T09:01:56.854Z,49.29
2018-09-12T09:03:33.150Z,49.46
2018-09-12T09:05:12.013Z,50.09
2018-09-12T09:06:49.203Z,49.64
2018-09-12T09:08:28.207Z,49.50
2018-09-12T09:10:05.800Z,49.48
2018-09-12T09:11:43.863Z,50.12
2018-09-12T09:13:19.296Z,49.79
2018-09-12T09:14:57.349Z,49.32
2018-09-12T09:16:33.993Z,49.71
2018-09-12T09:18:14.113Z,49.99
2018-09-12T09:19:50.893Z,49.52
2018-09-12T09:21:26.404Z,49.63
2018-09-12T09:23:03.216Z,49.86
2018-09-12T09:24:38.688Z,49.76
2018-09-12T09:26:14.053Z,49.30
2018-09-12T09:27:50.963Z,50.09
2018-09-12T09:29:34.815Z,50.34
2018-09-12T09:31:11.404Z,49.48
2018-09-12T09:32:48.460Z,49.68
2018-09-12T09:34:23.852Z,49.37
2018-09-12T09:36:01.277Z,49.32
2018-09-12T09:37:39.955Z,49.95
2018-09-12T09:39:15.947Z,49.35
2018-09-12T09:40:56.427Z,49.93
2018-09-12T09:42:37.585Z,49.67
2018-09-12T09:44:13.268Z,50.05
2018-09-12T09:45:50.242Z,49.85
2018-09-12T09:47:26.704Z,49.64
2018-09-12T09:49:03.315Z,49.54
2018-09-12T09:50:39.287Z,49.76
2018-09-12T09:52:15.729Z,49.84
2018-09-12T09:53:52.158Z,49.35
2018-09-12T09:55:29.392Z,49.39
2018-09-12T09:57:05.457Z,49.34
2018-09-12T09:58:49.199Z,49.72
2018-09-12T10:00:32.430Z,49.90
2018-09-12T10:02:15.250Z,50.08
2018-09-12T10:03:56.553Z,49.90
2018-09-12T10:05:40.500Z,49.44
2018-09-12T10:07:23.213Z,49.71
2018-09-12T10:09:06.973Z,49.74
2018-09-12T10:10:45.180Z,49.39
2018-09-12T10:12:26.101Z,49.53
2018-09-12T10:14:01.715Z,50.19
2018-09-12T10:15:38.525Z,49.93
2018-09-12T10:17:14.544Z,49.46
2018-09-12T10:18:51.099Z,50.16
2018-09-12T10:20:27.575Z,49.64
2018-09-12T10:22:06.429Z,49.36
2018-09-12T10:23:43.951Z,49.53
2018-09-12T10:25:30.808Z,49.99
2018-09-12T10:27:16.800Z,49.58
2018-09-12T10:29:05.511Z,49.75
2018-09-12T10:30:53.814Z,50.04
2018-09-12T10:32:41.106Z,49.52
2018-09-12T10:35:38.333Z,50.00
2018-09-12T10:37:28.305Z,49.94
2018-09-12T10:39:08.725Z,49.71
2018-09-12T10:40:44.789Z,49.82
2018-09-12T10:42:20.780Z,49.94
2018-09-12T10:43:57.182Z,49.42
2018-09-12T10:45:33.435Z,49.50
2018-09-12T10:47:09.713Z,49.32
2018-09-12T10:48:45.169Z,49.75
2018-09-12T10:50:21.231Z,49.71
2018-09-12T10:51:58.351Z,50.08
2018-09-12T10:53:37.608Z,49.81
2018-09-12T10:55:15.056Z,49.34
2018-09-12T10:58:27.111Z,49.31
2018-09-12T11:00:11.557Z,49.38
2018-09-12T11:01:50.379Z,49.54
2018-09-12T11:03:43.763Z,49.45
2018-09-12T11:05:26.487Z,49.76
2018-09-12T11:07:08.292Z,49.35
2018-09-12T11:08:45.638Z,49.87
2018-09-12T11:10:24.781Z,49.51
2018-09-12T11:12:00.212Z,49.16
2018-09-12T11:13:42.573Z,49.35
2018-09-12T11:15:19.866Z,49.17
2018-09-12T11:17:05.189Z,49.98
2018-09-12T11:18:42.370Z,49.84
2018-09-12T11:20:19.828Z,49.33
2018-09-12T11:21:57.193Z,49.87
2018-09-12T11:23:36.683Z,49.70
2018-09-12T11:25:15.091Z,49.19
2018-09-12T11:26:54.194Z,49.09
2018-09-12T11:28:40.729Z,49.24
2018-09-12T11:30:20.213Z,49.28
2018-09-12T11:31:56.083Z,49.38
2018-09-12T11:33:31.755Z,49.15
2018-09-12T11:35:07.167Z,49.47
2018-09-12T11:36:44.339Z,49.05
2018-09-12T11:38:20.563Z,49.46
2018-09-12T11:39:59.500Z,49.54
2018-09-12T11:41:38.823Z,49.46
2018-09-12T11:43:18.359Z,49.40
2018-09-12T11:44:56.993Z,49.26
2018-09-12T11:46:38.428Z,49.40
2018-09-12T11:48:14.353Z,49.13
2018-09-12T11:49:49.879Z,48.79
2018-09-12T11:51:27.133Z,49.25
2018-09-12T11:53:07.596Z,49.42
2018-09-12T11:54:44.662Z,49.50
2018-09-12T11:56:25.550Z,48.90
2018-09-12T11:58:07.930Z,49.07
2018-09-12T11:59:48.872Z,48.79
2018-09-12T12:01:26.821Z,48.99
2018-09-12T12:03:02.747Z,48.88
2018-09-12T12:04:38.773Z,49.22
2018-09-12T12:06:14.149Z,48.68
2018-09-12T12:07:49.671Z,48.67
2018-09-12T12:09:25.860Z,49.19
2018-09-12T12:11:03.863Z,48.65
2018-09-12T12:12:39.618Z,49.00
2018-09-12T12:14:14.999Z,48.90
2018-09-12T12:15:54.387Z,48.80
2018-09-12T12:17:33.956Z,48.86
2018-09-12T12:19:15.365Z,48.90
2018-09-12T12:20:52.955Z,48.71
2018-09-12T12:22:28.424Z,49.11
2018-09-12T12:24:19.626Z,48.56
2018-09-12T12:25:56.766Z,49.03
2018-09-12T12:27:33.254Z,48.91
2018-09-12T12:29:11.631Z,49.10
2018-09-12T12:30:49.117Z,48.49
2018-09-12T12:32:48.055Z,48.71
2018-09-12T12:34:36.706Z,48.61
2018-09-12T12:36:35.410Z,49.04
2018-09-12T12:38:13.920Z,48.60
2018-09-12T12:39:59.025Z,48.75
2018-09-12T12:41:35.811Z,49.14
2018-09-12T12:43:24.043Z,49.12
2018-09-12T12:45:01.315Z,48.60
2018-09-12T12:46:42.272Z,49.13
2018-09-12T12:48:33.301Z,48.53
2018-09-12T12:50:15.948Z,48.69
2018-09-12T12:51:53.071Z,48.42
2018-09-12T12:53:47.557Z,48.40
2018-09-12T12:55:42.034Z,49.18
2018-09-12T12:57:29.277Z,48.90
2018-09-12T12:59:36.756Z,49.06
2018-09-12T13:01:13.100Z,48.72
2018-09-12T13:02:48.722Z,48.55
2018-09-12T13:04:25.805Z,48.97
2018-09-12T13:06:02.865Z,48.80
2018-09-12T13:07:38.962Z,48.97
2018-09-12T13:09:14.291Z,48.56
2018-09-12T13:10:52.095Z,48.69
2018-09-12T13:12:28.555Z,48.93
2018-09-12T13:14:03.893Z,48.23
2018-09-12T13:15:41.520Z,48.77
2018-09-12T13:17:20.447Z,48.98
2018-09-12T13:18:56.180Z,48.87
2018-09-12T13:20:31.572Z,48.42
2018-09-12T13:22:08.771Z,48.62
2018-09-12T13:23:45.300Z,48.51
2018-09-12T13:25:21.641Z,48.64
2018-09-12T13:26:58.491Z,48.18
2018-09-12T13:28:33.862Z,48.20
2018-09-12T13:30:09.426Z,48.30
2018-09-12T13:31:46.353Z,48.36
2018-09-12T13:33:21.678Z,48.90
2018-09-12T13:34:57.677Z,48.86
2018-09-12T13:36:35.672Z,48.07
2018-09-12T13:38:11.526Z,48.54
2018-09-12T13:39:48.513Z,48.74
2018-09-12T13:41:28.030Z,48.16
2018-09-12T13:43:03.330Z,48.31
2018-09-12T13:44:41.558Z,48.05
2018-09-12T13:46:19.615Z,48.39
2018-09-12T13:47:58.445Z,48.58
2018-09-12T13:49:37.772Z,48.40
2018-09-12T13:51:13.492Z,48.63
2018-09-12T13:52:49.750Z,48.83
2018-09-12T13:54:27.171Z,48.11
2018-09-12T13:56:06.636Z,48.48
2018-09-12T13:57:42.454Z,48.07
2018-09-12T13:59:22.546Z,48.55
2018-09-12T14:00:57.813Z,48.67
2018-09-12T14:02:33.870Z,48.51
2018-09-12T14:04:10.615Z,48.55
2018-09-12T14:05:47.123Z,48.61
2018-09-12T14:07:22.490Z,48.44
2018-09-12T14:08:57.865Z,48.46
2018-09-12T14:10:34.557Z,48.53
2018-09-12T14:12:10.711Z,48.51
2018-09-12T14:13:47.705Z,48.60
2018-09-12T14:15:25.168Z,48.59
2018-09-12T14:17:01.733Z,48.01
2018-09-12T14:18:39.953Z,48.04
2018-09-12T14:20:15.377Z,48.38
2018-09-12T14:21:51.230Z,48.14
2018-09-12T14:23:28.514Z,48.67
2018-09-12T14:25:04.825Z,48.04
2018-09-12T14:26:42.343Z,48.60
2018-09-12T14:28:19.162Z,48.61
2018-09-12T14:29:57.203Z,48.16
2018-09-12T14:31:32.518Z,48.22
2018-09-12T14:33:08.538Z,48.47
2018-09-12T14:34:44.740Z,48.84
2018-09-12T14:36:20.911Z,48.83
2018-09-12T14:37:57.548Z,48.20
2018-09-12T14:39:34.812Z,48.53
2018-09-12T14:41:11.501Z,48.19
2018-09-12T14:42:47.606Z,48.11
2018-09-12T14:44:23.140Z,48.80
2018-09-12T14:46:00.220Z,48.06
2018-09-12T14:47:36.068Z,48.59
2018-09-12T14:49:12.017Z,48.54
2018-09-12T14:50:49.632Z,48.36
2018-09-12T14:52:26.361Z,48.67
2018-09-12T14:54:03.003Z,49.00
2018-09-12T14:55:38.458Z,48.98
2018-09-12T14:57:13.889Z,48.36
2018-09-12T14:58:49.291Z,48.56
2018-09-12T15:00:27.841Z,48.44
2018-09-12T15:02:05.266Z,48.97
2018-09-12T15:03:43.207Z,49.17
2018-09-12T15:05:20.753Z,49.16
2018-09-12T15:06:56.356Z,49.05
2018-09-12T15:08:32.454Z,48.56
2018-09-12T15:10:08.158Z,48.51
2018-09-12T15:11:46.040Z,49.23
2018-09-12T15:13:23.975Z,48.60
2018-09-12T15:14:59.387Z,48.98
2018-09-12T15:16:34.847Z,48.41
2018-09-12T15:18:12.883Z,48.42
2018-09-12T15:19:52.083Z,49.28
2018-09-12T15:21:28.476Z,48.83
2018-09-12T15:23:08.960Z,48.71
2018-09-12T15:24:46.693Z,49.28
2018-09-12T15:26:25.215Z,49.29
2018-09-12T15:28:06.091Z,49.26
2018-09-12T15:29:44.109Z,48.70
2018-09-12T15:31:20.274Z,49.31
2018-09-12T15:32:55.584Z,48.77
2018-09-12T15:34:34.462Z,49.36
2018-09-12T15:36:14.645Z,49.42
2018-09-12T15:37:51.363Z,49.38
2018-09-12T15:39:29.535Z,49.24
2018-09-12T15:41:05.993Z,49.31
2018-09-12T15:42:42.364Z,49.46
2018-09-12T15:44:17.833Z,49.01
2018-09-12T15:45:53.134Z,49.08
2018-09-12T15:47:28.429Z,49.32
2018-09-12T15:49:05.185Z,49.13
2018-09-12T15:50:41.368Z,48.95
2018-09-12T15:52:16.697Z,49.31
2018-09-12T15:53:52.130Z,49.61
2018-09-12T15:55:34.424Z,49.63
2018-09-12T15:57:11.994Z,49.52
2018-09-12T15:58:48.992Z,49.07
2018-09-12T16:00:28.492Z,49.28
2018-09-12T16:02:06.489Z,49.26
2018-09-12T16:03:42.558Z,49.59
2018-09-12T16:05:21.096Z,49.29
2018-09-12T16:06:56.515Z,49.76
2018-09-12T16:08:35.841Z,49.72
2018-09-12T16:10:11.404Z,49.82
2018-09-12T16:11:49.339Z,49.42
2018-09-12T16:13:31.684Z,49.87
2018-09-12T16:15:08.584Z,49.83
2018-09-12T16:16:47.195Z,49.41
2018-09-12T16:18:23.150Z,49.44
2018-09-12T16:20:02.827Z,49.76
2018-09-12T16:21:39.235Z,49.62
2018-09-12T16:23:18.077Z,49.49
2018-09-12T16:24:54.761Z,49.78
2018-09-12T16:26:30.191Z,50.14
2018-09-12T16:28:06.571Z,50.20
2018-09-12T16:29:54.772Z,49.62
2018-09-12T16:31:32.521Z,50.19
2018-09-12T16:33:09.701Z,49.69
2018-09-12T16:34:47.619Z,50.15
2018-09-12T16:36:24.516Z,50.16
2018-09-12T16:38:00.789Z,50.27
2018-09-12T16:39:39.765Z,50.29
2018-09-12T16:41:18.045Z,49.81
2018-09-12T16:42:56.774Z,49.95
2018-09-12T16:44:32.696Z,50.36
2018-09-12T16:46:10.640Z,50.51
2018-09-12T16:47:47.000Z,50.04
2018-09-12T16:49:23.309Z,50.50
2018-09-12T16:50:58.700Z,50.13
2018-09-12T16:52:34.499Z,50.48
2018-09-12T16:54:11.624Z,50.66
2018-09-12T16:55:46.900Z,50.59
2018-09-12T16:57:22.379Z,50.10
2018-09-12T16:59:03.961Z,50.14
2018-09-12T17:00:43.167Z,50.17
2018-09-12T17:02:20.216Z,50.05
2018-09-12T17:03:56.241Z,50.38
2018-09-12T17:05:33.204Z,50.51
2018-09-12T17:07:10.228Z,50.30
2018-09-12T17:08:47.022Z,50.86
2018-09-12T17:10:23.419Z,50.90
2018-09-12T17:12:08.297Z,50.27
2018-09-12T17:13:48.305Z,50.48
2018-09-12T17:15:40.108Z,50.85
2018-09-12T17:17:18.409Z,50.87
2018-09-12T17:18:54.818Z,50.50
2018-09-12T17:20:35.563Z,50.52
2018-09-12T17:22:13.892Z,51.11
2018-09-12T17:23:50.265Z,50.92
2018-09-12T17:25:28.093Z,51.09
2018-09-12T17:27:03.978Z,51.08
2018-09-12T17:28:42.927Z,50.88
2018-09-12T17:30:28.023Z,51.15
2018-09-12T17:32:05.723Z,51.09
2018-09-12T17:33:44.234Z,50.72
2018-09-12T17:35:22.392Z,50.86
2018-09-12T17:37:00.162Z,51.22
2018-09-12T17:38:38.352Z,50.73
2018-09-12T17:40:13.937Z,51.35
2018-09-12T17:41:51.568Z,51.25
2018-09-12T17:46:08.296Z,50.90
2018-09-12T17:47:44.275Z,51.31
2018-09-12T17:49:22.133Z,51.60
2018-09-12T17:50:58.017Z,51.57
2018-09-12T17:52:34.290Z,51.54
2018-09-12T17:54:12.114Z,51.36
2018-09-12T17:55:47.455Z,51.68
2018-09-12T17:57:23.807Z,51.18
2018-09-12T17:58:59.498Z,51.18
2018-09-12T18:00:36.048Z,51.29
2018-09-12T18:02:11.396Z,51.47
2018-09-12T18:03:47.773Z,51.56
2018-09-12T18:05:23.261Z,51.39
2018-09-12T18:06:58.616Z,51.65
2018-09-12T18:08:46.295Z,51.47
2018-09-12T18:10:25.335Z,51.46
2018-09-12T18:12:04.465Z,51.35
2018-09-12T18:13:46.406Z,51.73
2018-09-12T18:15:40.136Z,51.61
2018-09-12T18:17:21.526Z,51.51
2018-09-12T18:18:58.792Z,51.68
2018-09-12T18:20:35.723Z,51.92
2018-09-12T18:22:13.893Z,52.10
2018-09-12T18:23:58.374Z,51.71
2018-09-12T18:25:36.171Z,51.77
2018-09-12T18:27:14.337Z,52.28
2018-09-12T18:28:54.932Z,51.86
2018-09-12T18:30:31.976Z,52.00
2018-09-12T18:32:09.394Z,52.43
2018-09-12T18:33:46.611Z,52.00
2018-09-12T18:35:23.824Z,52.54
2018-09-12T18:37:00.355Z,52.01
2018-09-12T18:38:38.808Z,52.17
2018-09-12T18:40:14.670Z,52.05
2018-09-12T18:41:50.257Z,52.07
2018-09-12T18:43:26.602Z,52.41
2018-09-12T18:45:02.802Z,52.76
2018-09-12T18:46:38.520Z,52.57
2018-09-12T18:48:16.441Z,52.15
2018-09-12T18:49:52.033Z,52.66
2018-09-12T18:51:27.904Z,52.28
2018-09-12T18:53:07.500Z,52.81
2018-09-12T18:54:43.311Z,52.86
2018-09-12T18:56:20.904Z,52.74
2018-09-12T18:58:00.932Z,52.86
2018-09-12T18:59:36.400Z,52.43
2018-09-12T19:01:13.468Z,52.51
2018-09-12T19:02:51.130Z,52.97
2018-09-12T19:04:27.752Z,52.95
2018-09-12T19:06:03.941Z,52.97
2018-09-12T19:07:41.729Z,53.10
2018-09-12T19:09:18.412Z,52.98
2018-09-12T19:10:55.978Z,53.01
2018-09-12T19:12:36.528Z,52.67
2018-09-12T19:14:14.160Z,53.30
2018-09-12T19:15:51.124Z,53.08
2018-09-12T19:17:29.316Z,53.25
2018-09-12T19:19:12.722Z,52.74
2018-09-12T19:20:50.652Z,52.82
2018-09-12T19:22:28.657Z,53.47
2018-09-12T19:24:11.563Z,53.38
2018-09-12T19:25:50.031Z,52.90
2018-09-12T19:27:29.871Z,53.47
2018-09-12T19:29:12.424Z,53.43
2018-09-12T19:30:49.509Z,53.51
2018-09-12T19:32:28.794Z,53.43
2018-09-12T19:34:04.708Z,53.41
2018-09-12T19:35:42.511Z,53.52
2018-09-12T19:37:19.567Z,53.47
2018-09-12T19:38:56.009Z,53.54
2018-09-12T19:40:35.004Z,53.48
2018-09-12T19:42:18.471Z,53.60
2018-09-12T19:43:56.059Z,53.19
2018-09-12T19:45:33.079Z,53.90
2018-09-12T19:47:08.487Z,53.20
2018-09-12T19:48:49.650Z,53.25
2018-09-12T19:50:26.516Z,53.87
2018-09-12T19:52:02.698Z,53.46
2018-09-12T19:53:45.322Z,53.48
2018-09-12T19:55:26.494Z,53.79
2018-09-12T19:57:02.353Z,53.67
2018-09-12T19:58:40.008Z,54.00
2018-09-12T20:00:21.309Z,53.96
2018-09-12T20:01:59.344Z,53.47
2018-09-12T20:03:35.324Z,53.58
2018-09-12T20:05:11.107Z,53.56
2018-09-12T20:06:49.520Z,54.00
2018-09-12T20:08:29.908Z,53.60
2018-09-12T20:10:07.763Z,54.14
2018-09-12T20:11:43.620Z,53.74
2018-09-12T20:13:21.161Z,53.61
2018-09-12T20:14:57.855Z,54.21
2018-09-12T20:18:17.451Z,53.71
2018-09-12T20:19:53.457Z,54.28
2018-09-12T20:21:31.166Z,53.82
2018-09-12T20:25:46.424Z,54.24
2018-09-12T20:27:24.580Z,54.26
2018-09-12T20:29:05.390Z,53.88
2018-09-12T20:30:45.903Z,54.24
2018-09-12T20:32:25.396Z,54.05
2018-09-12T20:34:04.211Z,54.48
2018-09-12T20:35:41.417Z,54.41
2018-09-12T20:37:19.467Z,54.26
2018-09-12T20:39:04.080Z,54.31
2018-09-12T20:40:46.253Z,54.59
2018-09-12T20:42:25.576Z,53.93
2018-09-12T20:44:13.538Z,54.49
2018-09-12T20:45:50.176Z,54.66
2018-09-12T20:47:25.631Z,54.04
2018-09-12T20:49:03.910Z,54.63
2018-09-12T20:50:45.826Z,54.16
2018-09-12T20:52:28.197Z,54.32
2018-09-12T20:54:06.139Z,54.34
2018-09-12T20:55:44.716Z,54.26
2018-09-12T20:57:25.475Z,54.28
2018-09-12T20:59:02.375Z,54.63
2018-09-12T21:00:44.418Z,54.21
2018-09-12T21:02:23.613Z,54.91
2018-09-12T21:04:00.830Z,54.82
2018-09-12T21:05:41.527Z,54.64
2018-09-12T21:07:18.891Z,54.84
2018-09-12T21:08:55.326Z,54.66
2018-09-12T21:10:34.279Z,55.02
2018-09-12T21:12:13.727Z,54.81
2018-09-12T21:13:50.372Z,54.54
2018-09-12T21:15:27.935Z,54.39
2018-09-12T21:17:03.875Z,54.75
2018-09-12T21:18:42.922Z,54.49
2018-09-12T21:20:20.578Z,54.71
2018-09-12T21:22:00.781Z,54.59
2018-09-12T21:23:37.571Z,55.21